Decoded Metar for VTBD (Don Muang in Thailand) (IATA:DMK) | Meteo·Mobile Aviation Weather
aviador You're here:

VTBD Decoded Metar

Don Muang in Thailand
Report Time2019-03-27 02:00:00
UTC Time2019-03-27 02:17:54
Flight Rules vfr VFR
Wind160° at 04 kt
W.Decomp.*RWY 21: 2.6 kt HW 3.1 kt LCW
W.Rank160° ranks 13
Current wind is below 160° avg. (5.4)
Visibility9000 m
Phenomena:N/A
Clouds:Few 020 Hf
Expected CloudBase > 2,400 ft AGL from Temp-Dew spread
CeilingNone
Temp31°C (ISA +16)
Dew Point25°C (70% RH)
Heat Index37.6°C
QNH1015 hPa
Density Alt2,188 ft
Elevation9 ft
Report Wrong Elevation
Raw Report
VTBD 270200Z 16004KT 130V210 9000 FEW020 31/25 Q1015 NOSIG=

Extra information for VTBD:More info

Metar Taf Metar & Taf Last 4 Metars F.Rules Stats Wind Profile Meteogram Temp Stats Airport Information Weather charts Add Link Nearby VenuesMetar ALERT Operation Metar Decoded Social comments